Terminal Aerodrome Forecast
Issued by NWS Wilmington, OH

Current Version | Previous Version | Graphics & Text | Print | Product List | Glossary On
Versions: 1 2 3 4 5 6 7 8 9 10 11 12 13 14 15 16
000
FTUS41 KILN 270534
TAFCMH
TAF
KCMH 270534Z 2706/2806 19006KT P6SM FEW045 BKN070
     FM271000 24005KT P6SM BKN028
     FM271600 24006KT P6SM SCT025 BKN060
     FM272100 20006KT P6SM VCSH SCT025 BKN100
     FM280000 15004KT P6SM SCT025 BKN090
     FM280100 15004KT P6SM -SHRA VCTS SCT025CB BKN070
     FM280300 16004KT 5SM -SHRA VCTS BKN025CB OVC060=

USA.gov is the U.S. government's official web portal to all federal, state and local government web resources and services.